Time;durP1;ratioP1;P1;durP2;ratioP2;P2;SDS_P1;SDS_P2;PMS_P1;PMS_P2;Temp;Humidity;BMP_temperature;BMP_pressure;BME280_temperature;BME280_humidity;BME280_pressure;Samples;Min_cycle;Max_cycle;Signal;HPM_P1;HPM_P2
2022/10/05 00:02:25;;;;;;;4.25;2.33;;;24.30;56.00;;;;;;5030253;28;20033;-69
2022/10/05 00:04:54;;;;;;;1.42;1.30;;;24.20;55.90;;;;;;5029985;28;20077;-68
2022/10/05 00:07:21;;;;;;;1.92;1.10;;;24.10;56.10;;;;;;5030546;28;20120;-68
2022/10/05 00:09:57;;;;;;;1.42;1.10;;;24.30;56.20;;;;;;5030193;28;20043;-68
2022/10/05 00:12:24;;;;;;;1.35;1.10;;;24.30;56.20;;;;;;5030647;28;20061;-69
2022/10/05 00:14:54;;;;;;;1.45;1.35;;;24.20;56.00;;;;;;5029085;28;20041;-68
2022/10/05 00:17:23;;;;;;;1.38;1.05;;;24.40;56.00;;;;;;5030509;28;20033;-69
2022/10/05 00:19:52;;;;;;;1.70;1.48;;;24.40;56.00;;;;;;5011503;28;20045;-69
2022/10/05 00:22:27;;;;;;;1.42;1.27;;;24.40;56.00;;;;;;5030123;28;20037;-67
2022/10/05 00:25:02;;;;;;;2.00;1.13;;;24.40;56.00;;;;;;5028315;28;20074;-68
2022/10/05 00:27:35;;;;;;;2.33;1.67;;;24.40;56.00;;;;;;5028762;28;20411;-69
2022/10/05 00:30:12;;;;;;;1.83;1.35;;;24.40;56.00;;;;;;5029050;28;20033;-68
2022/10/05 00:32:38;;;;;;;2.05;1.50;;;24.60;56.00;;;;;;5030977;28;20056;-68
2022/10/05 00:35:05;;;;;;;1.80;1.52;;;24.50;56.00;;;;;;5030735;28;20382;-69
2022/10/05 00:37:31;;;;;;;2.20;1.67;;;24.50;55.90;;;;;;4995824;28;20042;-69
2022/10/05 00:39:57;;;;;;;3.00;1.35;;;24.50;56.00;;;;;;4995656;28;20045;-69
2022/10/05 00:43:04;;;;;;;2.78;1.60;;;24.60;55.90;;;;;;5030976;28;20064;-68
2022/10/05 00:45:36;;;;;;;1.80;1.50;;;24.60;55.80;;;;;;4969295;28;20038;-69
2022/10/05 00:48:17;;;;;;;1.98;1.20;;;24.50;55.80;;;;;;4969593;28;20040;-68
2022/10/05 00:51:01;;;;;;;1.30;1.20;;;24.60;55.80;;;;;;4969483;28;20069;-68
2022/10/05 00:53:27;;;;;;;;;;;24.60;55.70;;;;;;4969989;28;20038;-68
2022/10/05 00:56:32;;;;;;;1.20;1.10;;;24.70;55.80;;;;;;4969209;28;20056;-69
2022/10/05 00:59:12;;;;;;;1.40;1.25;;;24.60;55.80;;;;;;4893134;29;20045;-68
2022/10/05 01:02:05;;;;;;;1.55;1.45;;;24.60;55.80;;;;;;4895195;29;20124;-68
2022/10/05 01:04:52;;;;;;;2.45;1.17;;;24.70;55.90;;;;;;4896711;29;20135;-69
2022/10/05 01:07:54;;;;;;;1.80;1.42;;;24.60;55.80;;;;;;4896814;29;20056;-69
2022/10/05 01:10:41;;;;;;;2.58;1.42;;;24.80;55.90;;;;;;4896447;29;20866;-69
2022/10/05 01:13:31;;;;;;;1.10;1.00;;;24.60;55.90;;;;;;4895880;29;20095;-69
2022/10/05 01:16:12;;;;;;;2.25;1.45;;;24.70;55.90;;;;;;4880813;29;20044;-68
2022/10/05 01:19:23;;;;;;;1.77;1.33;;;24.70;56.00;;;;;;4880861;29;20099;-68
2022/10/05 01:22:07;;;;;;;1.85;1.60;;;24.60;55.80;;;;;;4886159;29;20081;-68
2022/10/05 01:25:14;;;;;;;2.05;1.40;;;24.70;55.80;;;;;;4915236;29;20104;-68
2022/10/05 01:27:58;;;;;;;1.65;1.45;;;24.60;55.80;;;;;;4915320;29;20433;-68
2022/10/05 01:30:24;;;;;;;4.82;1.58;;;24.60;55.80;;;;;;4899252;29;20087;-69
2022/10/05 01:33:21;;;;;;;3.58;1.50;;;24.60;55.90;;;;;;4915128;29;20623;-68
2022/10/05 01:35:54;;;;;;;2.45;1.50;;;24.60;55.90;;;;;;4915048;29;20143;-68
2022/10/05 01:38:23;;;;;;;1.73;1.33;;;24.60;55.90;;;;;;4908416;29;20036;-68
2022/10/05 01:41:15;;;;;;;1.88;1.25;;;24.60;56.00;;;;;;4880580;29;20123;-69
2022/10/05 01:43:44;;;;;;;1.58;1.48;;;24.40;56.00;;;;;;4891224;29;20066;-69
2022/10/05 01:46:19;;;;;;;2.55;1.75;;;24.50;56.10;;;;;;4934151;29;20484;-68
2022/10/05 01:49:21;;;;;;;1.88;1.77;;;24.60;55.90;;;;;;4933902;29;20055;-69
2022/10/05 01:52:02;;;;;;;2.38;1.63;;;24.60;55.90;;;;;;4933922;29;20051;-69
2022/10/05 01:54:45;;;;;;;1.48;1.10;;;24.60;55.90;;;;;;4918368;28;20485;-68
2022/10/05 01:57:37;;;;;;;1.45;1.20;;;24.60;55.90;;;;;;5012354;28;20033;-68
2022/10/05 02:00:08;;;;;;;1.20;1.10;;;24.50;55.80;;;;;;4936866;29;20110;-69
2022/10/05 02:02:55;;;;;;;1.42;1.30;;;24.60;55.90;;;;;;4952806;29;20047;-68
2022/10/05 02:05:36;;;;;;;5.07;1.63;;;24.70;55.80;;;;;;4952680;29;20059;-69
2022/10/05 02:08:09;;;;;;;2.40;1.80;;;24.70;55.80;;;;;;4936776;29;20042;-69
2022/10/05 02:10:43;;;;;;;1.42;1.33;;;24.70;55.70;;;;;;4951952;29;20512;-69
2022/10/05 02:13:15;;;;;;;2.50;1.60;;;24.60;55.70;;;;;;4951255;28;20050;-68
2022/10/05 02:15:57;;;;;;;4.53;1.83;;;24.60;55.80;;;;;;4952580;29;20031;-68
2022/10/05 02:18:29;;;;;;;1.92;1.33;;;24.50;55.80;;;;;;4958799;28;20417;-69
2022/10/05 02:21:00;;;;;;;2.45;1.60;;;24.50;55.90;;;;;;4968376;28;20066;-68
2022/10/05 02:23:32;;;;;;;3.92;1.80;;;24.50;56.00;;;;;;4971885;28;20502;-68
2022/10/05 02:26:00;;;;;;;2.47;1.95;;;24.50;56.00;;;;;;4971358;28;20027;-69
2022/10/05 02:28:47;;;;;;;3.20;1.48;;;24.40;55.90;;;;;;4939034;28;20138;-67
2022/10/05 02:31:21;;;;;;;2.03;1.60;;;24.50;56.20;;;;;;4954589;28;20039;-68
2022/10/05 02:33:48;;;;;;;5.82;1.83;;;24.40;56.10;;;;;;4970663;28;20089;-68
2022/10/05 02:36:27;;;;;;;3.53;1.65;;;24.40;56.10;;;;;;4961702;28;20041;-68
2022/10/05 02:39:08;;;;;;;1.45;1.33;;;24.40;56.10;;;;;;4993462;28;20048;-69
2022/10/05 02:41:59;;;;;;;2.92;1.60;;;24.30;56.10;;;;;;5010939;28;20049;-68
2022/10/05 02:44:35;;;;;;;6.70;1.85;;;24.50;56.20;;;;;;5012247;28;20046;-69
2022/10/05 02:47:01;;;;;;;2.28;1.60;;;24.50;56.10;;;;;;5011074;28;20092;-68
2022/10/05 02:49:47;;;;;;;2.10;1.50;;;24.60;56.10;;;;;;5011444;28;20042;-69
2022/10/05 02:52:28;;;;;;;1.80;1.60;;;24.50;56.10;;;;;;5011719;28;20513;-68
2022/10/05 02:55:23;;;;;;;2.42;1.90;;;24.40;56.00;;;;;;5011331;28;20356;-68
2022/10/05 02:58:10;;;;;;;2.17;1.85;;;24.50;56.00;;;;;;5012038;28;20552;-69
2022/10/05 03:01:19;;;;;;;2.03;1.80;;;24.40;55.90;;;;;;5011460;28;20030;-69
2022/10/05 03:04:24;;;;;;;2.42;1.67;;;24.40;55.90;;;;;;4954826;28;20130;-68
2022/10/05 03:07:04;;;;;;;4.35;1.50;;;24.40;55.90;;;;;;4878632;29;20044;-68
2022/10/05 03:09:38;;;;;;;5.85;2.05;;;24.40;56.00;;;;;;4893890;29;20143;-69
2022/10/05 03:12:29;;;;;;;3.47;2.05;;;24.40;56.00;;;;;;4894572;29;20052;-69
2022/10/05 03:15:14;;;;;;;3.38;2.00;;;24.30;56.00;;;;;;4874976;29;20589;-68
2022/10/05 03:18:09;;;;;;;2.25;1.95;;;24.30;56.10;;;;;;4873453;29;20073;-69
2022/10/05 03:21:00;;;;;;;3.35;2.30;;;24.30;56.20;;;;;;4820630;29;20046;-68
2022/10/05 03:23:45;;;;;;;2.55;2.05;;;24.20;56.20;;;;;;4805125;29;20043;-68
2022/10/05 03:26:19;;;;;;;5.80;1.90;;;24.20;56.20;;;;;;4805522;29;20061;-68
2022/10/05 03:29:22;;;;;;;1.98;1.80;;;24.30;56.20;;;;;;4805232;29;20050;-68
2022/10/05 03:32:12;;;;;;;2.85;1.98;;;24.30;56.10;;;;;;4805068;29;20050;-68
2022/10/05 03:34:45;;;;;;;3.42;2.20;;;24.20;56.00;;;;;;4805183;29;20537;-68
2022/10/05 03:37:29;;;;;;;4.35;2.20;;;24.30;56.10;;;;;;4828551;29;20457;-68
2022/10/05 03:40:36;;;;;;;4.57;1.73;;;24.20;56.20;;;;;;4878513;29;20451;-68
2022/10/05 03:43:02;;;;;;;3.15;2.10;;;24.20;56.20;;;;;;4870490;29;20037;-69
2022/10/05 03:46:05;;;;;;;3.80;2.28;;;24.30;56.20;;;;;;4878283;29;20044;-68
2022/10/05 03:48:47;;;;;;;2.58;1.92;;;24.30;56.20;;;;;;4822757;29;20061;-67
2022/10/05 03:51:31;;;;;;;3.50;2.38;;;24.30;56.10;;;;;;4837654;29;20049;-70
2022/10/05 03:54:10;;;;;;;5.60;2.60;;;24.20;56.00;;;;;;4837969;29;20069;-69
2022/10/05 03:56:59;;;;;;;6.25;2.28;;;24.30;56.10;;;;;;4826930;29;20069;-70
2022/10/05 03:59:31;;;;;;;5.03;2.08;;;24.40;56.00;;;;;;4893387;29;20806;-70
2022/10/05 04:02:01;;;;;;;2.40;1.90;;;24.20;55.80;;;;;;4878131;29;20037;-70
2022/10/05 04:04:45;;;;;;;5.07;1.38;;;24.30;56.00;;;;;;4893003;29;20079;-67
2022/10/05 04:07:35;;;;;;;1.75;1.52;;;24.40;55.90;;;;;;4877356;29;20044;-69
2022/10/05 04:10:09;;;;;;;2.75;1.77;;;24.40;55.50;;;;;;4864549;29;20048;-68
2022/10/05 04:12:40;;;;;;;2.33;1.58;;;24.50;55.20;;;;;;4891798;29;20065;-67
2022/10/05 04:15:18;;;;;;;2.58;1.38;;;24.60;54.90;;;;;;4889951;29;20120;-70
2022/10/05 04:17:55;;;;;;;2.80;2.00;;;24.60;54.50;;;;;;4904131;29;20047;-70
2022/10/05 04:20:24;;;;;;;3.08;1.83;;;24.60;56.10;;;;;;4934502;29;20400;-70
2022/10/05 04:23:08;;;;;;;7.20;1.80;;;25.00;57.60;;;;;;4934576;29;20049;-71
2022/10/05 04:26:00;;;;;;;2.63;2.13;;;25.10;57.70;;;;;;4985708;28;20442;-72
2022/10/05 04:28:43;;;;;;;3.17;1.92;;;25.30;58.10;;;;;;5011389;28;20032;-71
2022/10/05 04:31:22;;;;;;;2.42;1.55;;;25.30;55.00;;;;;;4993813;28;20537;-70
2022/10/05 04:34:05;;;;;;;4.50;2.05;;;25.20;53.00;;;;;;5009860;28;20077;-70
2022/10/05 04:36:51;;;;;;;7.63;1.85;;;25.10;52.40;;;;;;5019853;28;20067;-70
2022/10/05 04:39:31;;;;;;;5.47;1.98;;;25.10;53.10;;;;;;5030845;28;20040;-69
2022/10/05 04:42:00;;;;;;;7.80;2.10;;;25.00;53.90;;;;;;5029697;28;20037;-68
2022/10/05 04:44:26;;;;;;;4.05;1.70;;;24.70;54.70;;;;;;5029453;28;20548;-69
2022/10/05 04:47:30;;;;;;;3.30;1.83;;;24.80;55.30;;;;;;5013728;28;20040;-69
2022/10/05 04:50:03;;;;;;;3.90;1.95;;;24.60;55.80;;;;;;5029665;28;20033;-69
2022/10/05 04:53:08;;;;;;;4.30;1.95;;;24.60;56.10;;;;;;5031001;28;20037;-69
2022/10/05 04:55:52;;;;;;;3.35;1.90;;;24.70;56.50;;;;;;5029396;28;20529;-67
2022/10/05 04:58:36;;;;;;;3.22;1.40;;;24.70;50.90;;;;;;5013075;28;20446;-67
2022/10/05 05:01:14;;;;;;;4.68;1.35;;;24.70;50.40;;;;;;5029247;28;20187;-68
2022/10/05 05:04:02;;;;;;;3.97;2.90;;;24.70;49.50;;;;;;5028400;28;20056;-68
2022/10/05 05:06:31;;;;;;;3.35;2.50;;;24.80;48.90;;;;;;5028990;28;20084;-67
2022/10/05 05:09:27;;;;;;;8.25;2.22;;;24.80;48.10;;;;;;5029323;28;20037;-68
2022/10/05 05:12:09;;;;;;;1.77;1.67;;;24.80;47.70;;;;;;5027655;28;20447;-67
2022/10/05 05:14:50;;;;;;;3.65;1.90;;;24.70;49.60;;;;;;5007872;28;20499;-69
2022/10/05 05:17:28;;;;;;;5.07;2.30;;;24.80;51.50;;;;;;4975270;28;20030;-67
2022/10/05 05:20:00;;;;;;;3.55;1.90;;;24.80;52.80;;;;;;4968874;28;20086;-67
2022/10/05 05:22:59;;;;;;;4.53;2.03;;;25.00;51.60;;;;;;4969042;28;20122;-67
2022/10/05 05:25:28;;;;;;;7.80;2.40;;;25.00;53.40;;;;;;4876397;29;20063;-67
2022/10/05 05:28:15;;;;;;;3.85;2.45;;;25.00;53.90;;;;;;4892413;29;20127;-69
2022/10/05 05:30:55;;;;;;;3.15;2.28;;;24.90;52.00;;;;;;4874207;29;20053;-69
2022/10/05 05:33:28;;;;;;;2.70;2.10;;;24.90;50.70;;;;;;4873025;29;20043;-68
2022/10/05 05:36:21;;;;;;;3.80;2.58;;;24.90;50.00;;;;;;4892740;29;20498;-68
2022/10/05 05:39:02;;;;;;;4.20;2.65;;;24.90;51.60;;;;;;4892920;29;20039;-66
2022/10/05 05:41:28;;;;;;;4.03;1.85;;;24.90;48.90;;;;;;4892889;29;20051;-67
2022/10/05 05:44:26;;;;;;;7.22;2.60;;;25.00;47.80;;;;;;4892792;29;20036;-69
2022/10/05 05:47:17;;;;;;;7.30;2.80;;;24.90;48.10;;;;;;4896835;29;20483;-68
2022/10/05 05:50:02;;;;;;;3.95;2.35;;;24.90;57.40;;;;;;4899394;29;20417;-69
2022/10/05 05:52:34;;;;;;;6.75;2.72;;;25.10;57.10;;;;;;4914626;29;20044;-67
2022/10/05 05:55:21;;;;;;;8.35;2.92;;;25.00;56.80;;;;;;4914163;29;20452;-67
2022/10/05 05:57:59;;;;;;;6.57;2.70;;;25.10;56.40;;;;;;4927158;29;20087;-67
2022/10/05 06:00:33;;;;;;;3.92;2.67;;;24.90;56.30;;;;;;4933182;29;20039;-67
2022/10/05 06:03:11;;;;;;;3.67;2.58;;;25.00;56.50;;;;;;4990950;28;20046;-69
2022/10/05 06:05:43;;;;;;;8.95;2.67;;;25.00;56.50;;;;;;5005108;28;20409;-69
2022/10/05 06:08:33;;;;;;;3.67;2.30;;;24.90;56.40;;;;;;5029383;28;20040;-67
2022/10/05 06:11:11;;;;;;;7.97;2.88;;;24.90;56.70;;;;;;5015643;28;20136;-68
2022/10/05 06:13:41;;;;;;;6.05;2.45;;;24.90;57.30;;;;;;5032022;28;20051;-69
2022/10/05 06:16:21;;;;;;;4.63;3.15;;;24.80;57.00;;;;;;5032072;28;20029;-69
2022/10/05 06:18:56;;;;;;;4.22;2.85;;;24.90;57.40;;;;;;5010833;28;20496;-70
2022/10/05 06:21:34;;;;;;;10.93;2.80;;;24.80;57.10;;;;;;4978490;28;20056;-71
2022/10/05 06:24:44;;;;;;;12.73;3.20;;;24.80;57.10;;;;;;4994724;28;20049;-71
2022/10/05 06:27:19;;;;;;;7.38;2.97;;;24.80;57.10;;;;;;4930141;29;20036;-70
2022/10/05 06:30:12;;;;;;;6.22;2.90;;;24.80;57.20;;;;;;4915016;29;20056;-70
2022/10/05 06:32:49;;;;;;;7.20;2.45;;;24.80;57.10;;;;;;4932364;29;20058;-68
2022/10/05 06:35:16;;;;;;;4.32;2.60;;;24.90;57.40;;;;;;4933289;29;20504;-69
2022/10/05 06:38:02;;;;;;;5.50;2.97;;;24.90;57.30;;;;;;4933215;29;20088;-71
2022/10/05 06:40:40;;;;;;;6.97;2.83;;;25.00;57.40;;;;;;4924064;29;20488;-71
2022/10/05 06:43:27;;;;;;;6.15;3.08;;;25.00;57.20;;;;;;4916841;29;20032;-70
2022/10/05 06:46:17;;;;;;;4.50;3.08;;;24.90;57.30;;;;;;4918377;29;20038;-69
2022/10/05 06:49:20;;;;;;;7.38;3.30;;;24.80;57.30;;;;;;4925718;28;20097;-70
2022/10/05 06:52:32;;;;;;;8.77;3.53;;;24.90;57.70;;;;;;4935699;29;20074;-71
2022/10/05 06:54:58;;;;;;;5.88;2.95;;;24.90;58.00;;;;;;4951982;29;20079;-70
2022/10/05 06:57:44;;;;;;;6.25;2.90;;;24.90;58.00;;;;;;4919890;29;20089;-69
2022/10/05 07:00:14;;;;;;;11.90;2.70;;;24.80;57.80;;;;;;4935739;29;20039;-68
2022/10/05 07:02:52;;;;;;;5.22;3.20;;;25.00;57.90;;;;;;4935977;29;20043;-69
2022/10/05 07:05:45;;;;;;;5.20;2.40;;;24.90;57.90;;;;;;4960078;28;20056;-69
2022/10/05 07:08:15;;;;;;;5.15;2.63;;;25.00;58.10;;;;;;5015755;28;20129;-71
2022/10/05 07:10:53;;;;;;;4.03;2.40;;;25.10;56.90;;;;;;4976939;28;20470;-69
2022/10/05 07:13:28;;;;;;;4.35;2.15;;;25.00;57.80;;;;;;5009835;28;20050;-69
2022/10/05 07:16:21;;;;;;;2.63;1.45;;;25.20;55.40;;;;;;4993576;28;20060;-70
2022/10/05 07:19:02;;;;;;;1.73;1.48;;;25.10;55.10;;;;;;5002424;28;20046;-69
2022/10/05 07:21:56;;;;;;;3.22;1.48;;;25.10;55.60;;;;;;4992565;28;20041;-69
2022/10/05 07:24:32;;;;;;;3.33;1.50;;;25.10;55.20;;;;;;5030889;28;20052;-69
2022/10/05 07:27:21;;;;;;;1.50;1.40;;;25.00;54.40;;;;;;5030653;28;20037;-69
2022/10/05 07:30:00;;;;;;;1.65;0.85;;;25.20;53.30;;;;;;5032094;28;20048;-68
2022/10/05 07:32:46;;;;;;;4.25;1.90;;;25.00;54.80;;;;;;5030345;28;20045;-68
2022/10/05 07:38:36;;;;;;;;;;;25.20;54.50;;;;;;4981103;28;20033;-70
2022/10/05 07:41:18;;;;;;;2.22;1.50;;;25.10;49.50;;;;;;5030338;28;19913;-71
2022/10/05 07:44:05;;;;;;;2.15;1.10;;;25.10;55.00;;;;;;5023114;28;20465;-70
2022/10/05 07:46:57;;;;;;;5.78;1.85;;;25.20;52.70;;;;;;5043753;28;20061;-68
2022/10/05 07:49:39;;;;;;;4.35;1.60;;;25.10;49.90;;;;;;5010710;28;20423;-68
2022/10/05 07:52:20;;;;;;;4.78;1.60;;;25.00;52.70;;;;;;5047108;28;20033;-67
2022/10/05 07:54:52;;;;;;;2.38;1.55;;;25.10;51.60;;;;;;5029930;28;20071;-70
2022/10/05 07:57:37;;;;;;;1.63;1.45;;;25.10;48.30;;;;;;5030192;28;20037;-69
2022/10/05 08:00:19;;;;;;;5.65;1.55;;;25.10;51.50;;;;;;5030565;28;20029;-71
2022/10/05 08:02:48;;;;;;;2.25;1.27;;;25.20;49.90;;;;;;5029875;28;20026;-70
2022/10/05 08:05:25;;;;;;;4.93;1.85;;;25.10;51.30;;;;;;5029856;28;20088;-70
2022/10/05 08:08:03;;;;;;;4.30;1.88;;;25.10;49.30;;;;;;5031033;28;20069;-70
2022/10/05 08:10:54;;;;;;;1.88;0.95;;;25.10;51.50;;;;;;5030266;28;20517;-70
2022/10/05 08:13:29;;;;;;;2.70;1.65;;;25.10;52.30;;;;;;4996296;28;20034;-71
2022/10/05 08:16:03;;;;;;;2.45;1.50;;;25.10;53.60;;;;;;5031438;28;20033;-69
2022/10/05 08:18:50;;;;;;;4.47;1.70;;;25.10;52.20;;;;;;5031358;28;20041;-69
2022/10/05 08:21:21;;;;;;;9.63;1.65;;;25.00;50.70;;;;;;5030044;28;20037;-70
2022/10/05 08:23:56;;;;;;;3.83;1.98;;;25.10;56.20;;;;;;5031302;28;20467;-69
2022/10/05 08:26:50;;;;;;;0.75;0.65;;;25.20;56.40;;;;;;5030950;28;20415;-70
2022/10/05 08:29:26;;;;;;;6.68;1.77;;;25.20;56.20;;;;;;5031355;28;20033;-67
2022/10/05 08:32:17;;;;;;;10.90;2.53;;;25.30;49.00;;;;;;5031253;28;20463;-69
2022/10/05 08:35:02;;;;;;;5.53;2.03;;;25.30;50.00;;;;;;5030803;28;20041;-69
2022/10/05 08:37:36;;;;;;;3.38;1.50;;;25.40;55.30;;;;;;5030680;28;20569;-70
2022/10/05 08:40:14;;;;;;;2.47;1.60;;;25.60;54.00;;;;;;5029247;28;20029;-71
2022/10/05 08:42:49;;;;;;;1.60;1.50;;;25.70;53.90;;;;;;5030621;28;20036;-71
2022/10/05 08:45:16;;;;;;;3.28;1.33;;;25.60;54.20;;;;;;5030449;28;20509;-69
2022/10/05 08:48:06;;;;;;;1.63;1.40;;;25.60;53.00;;;;;;5029918;28;20171;-69
2022/10/05 08:50:54;;;;;;;4.65;2.60;;;25.60;51.20;;;;;;5030119;28;20041;-68
2022/10/05 08:53:35;;;;;;;3.00;1.42;;;25.60;49.10;;;;;;5030266;28;20121;-68
2022/10/05 08:56:20;;;;;;;2.40;1.73;;;25.70;48.70;;;;;;5030056;28;20038;-68
2022/10/05 08:59:04;;;;;;;4.35;1.60;;;25.70;47.20;;;;;;5029424;28;20482;-68
2022/10/05 09:01:50;;;;;;;9.75;1.65;;;25.80;50.20;;;;;;5029040;28;20029;-68
2022/10/05 09:04:29;;;;;;;1.83;1.38;;;25.90;47.20;;;;;;5029882;28;20057;-70
2022/10/05 09:07:23;;;;;;;1.65;1.35;;;25.90;45.80;;;;;;5029973;28;20029;-70
2022/10/05 09:10:26;;;;;;;1.58;1.40;;;25.90;46.10;;;;;;5029966;28;20044;-70
2022/10/05 09:13:17;;;;;;;;;;;25.90;45.90;;;;;;5030637;28;20049;-74
2022/10/05 09:16:25;;;;;;;5.78;1.50;;;26.00;46.50;;;;;;5029928;28;19916;-72
2022/10/05 09:19:03;;;;;;;1.75;1.30;;;26.10;46.70;;;;;;4968739;28;20471;-72
2022/10/05 09:21:47;;;;;;;2.15;1.67;;;26.00;47.70;;;;;;4969162;28;20035;-73
2022/10/05 09:24:13;;;;;;;1.88;1.20;;;25.80;50.60;;;;;;4972554;28;20130;-72
2022/10/05 09:27:03;;;;;;;2.95;1.63;;;26.10;49.40;;;;;;4972507;28;20035;-72
2022/10/05 09:29:43;;;;;;;2.13;1.52;;;26.00;49.10;;;;;;4972114;28;20043;-68
2022/10/05 09:32:31;;;;;;;2.10;1.58;;;26.00;49.00;;;;;;4971938;28;20043;-68
2022/10/05 09:35:24;;;;;;;4.55;1.58;;;25.90;48.80;;;;;;4972211;28;20045;-69
2022/10/05 09:38:07;;;;;;;3.13;1.55;;;25.90;50.50;;;;;;4972066;28;20038;-69
2022/10/05 09:41:07;;;;;;;1.52;1.23;;;26.00;53.50;;;;;;4952986;28;20073;-70
2022/10/05 09:43:54;;;;;;;1.95;1.83;;;25.90;52.80;;;;;;4973013;28;20046;-68
2022/10/05 09:46:28;;;;;;;1.20;1.10;;;26.00;53.30;;;;;;4972978;28;20163;-69
2022/10/05 09:49:24;;;;;;;2.22;1.20;;;25.90;52.60;;;;;;4972685;28;20399;-68
2022/10/05 09:52:27;;;;;;;10.95;2.10;;;26.00;56.00;;;;;;4972917;28;20058;-68
2022/10/05 09:55:04;;;;;;;1.73;1.55;;;26.20;53.10;;;;;;4985540;28;20486;-67
2022/10/05 09:57:45;;;;;;;1.23;1.13;;;26.50;55.60;;;;;;5033859;28;20351;-67
2022/10/05 10:00:39;;;;;;;4.10;1.50;;;26.50;47.70;;;;;;5032659;28;20449;-67
2022/10/05 10:03:33;;;;;;;2.83;1.45;;;26.50;46.80;;;;;;5033751;28;20035;-67
2022/10/05 10:06:35;;;;;;;3.42;1.35;;;26.30;44.00;;;;;;5033677;28;20422;-68
2022/10/05 10:09:13;;;;;;;1.05;1.00;;;26.30;46.30;;;;;;5033609;28;20472;-69
2022/10/05 10:11:58;;;;;;;1.88;1.40;;;26.20;42.90;;;;;;5033863;28;20045;-68
2022/10/05 10:14:37;;;;;;;0.98;0.90;;;26.20;46.30;;;;;;5033775;28;20215;-68
2022/10/05 10:17:09;;;;;;;3.25;2.13;;;26.30;52.70;;;;;;5033624;28;20670;-67
2022/10/05 10:20:03;;;;;;;2.63;1.15;;;26.30;55.30;;;;;;5033226;28;20140;-67
2022/10/05 10:22:38;;;;;;;2.97;1.42;;;26.30;54.20;;;;;;5013772;28;20036;-68
2022/10/05 10:25:33;;;;;;;3.38;1.38;;;26.30;53.00;;;;;;5013537;28;20042;-68
2022/10/05 10:28:24;;;;;;;1.60;1.48;;;26.20;53.00;;;;;;5012379;28;20511;-69
2022/10/05 10:31:31;;;;;;;4.47;1.30;;;26.10;53.00;;;;;;4978187;28;20049;-68
2022/10/05 10:34:38;;;;;;;2.80;1.42;;;26.00;53.10;;;;;;4951804;28;20114;-67
2022/10/05 10:37:22;;;;;;;4.78;1.52;;;26.10;53.30;;;;;;4952616;29;20075;-70
2022/10/05 10:39:57;;;;;;;1.60;0.90;;;26.10;50.00;;;;;;4952432;29;20354;-68
2022/10/05 10:43:09;;;;;;;5.63;1.35;;;26.00;53.30;;;;;;4952487;29;20126;-68
2022/10/05 10:45:59;;;;;;;4.32;1.40;;;26.00;53.50;;;;;;4952478;29;20098;-69
2022/10/05 10:48:27;;;;;;;1.75;1.35;;;26.00;53.60;;;;;;4952409;29;20139;-69
2022/10/05 10:51:28;;;;;;;2.55;1.30;;;25.90;53.30;;;;;;4952180;29;20425;-68
2022/10/05 10:54:12;;;;;;;0.88;0.88;;;26.10;53.60;;;;;;4961451;28;20053;-69
2022/10/05 10:57:10;;;;;;;1.20;1.10;;;26.00;53.80;;;;;;4969996;28;20393;-69
2022/10/05 10:59:40;;;;;;;1.20;1.10;;;25.90;53.60;;;;;;4955266;28;20038;-68
2022/10/05 11:02:36;;;;;;;5.05;1.55;;;26.00;54.00;;;;;;4971085;28;20057;-67
2022/10/05 11:05:31;;;;;;;3.40;1.35;;;25.90;53.80;;;;;;4971317;28;20405;-69
2022/10/05 11:08:09;;;;;;;1.65;1.30;;;26.00;50.00;;;;;;4971132;28;20102;-69
2022/10/05 11:11:23;;;;;;;2.50;1.05;;;26.10;54.00;;;;;;5009575;28;20137;-68
2022/10/05 11:14:13;;;;;;;1.95;1.45;;;25.90;53.70;;;;;;4954696;28;20079;-69
2022/10/05 11:17:21;;;;;;;2.10;1.02;;;25.90;52.70;;;;;;4951862;28;20529;-68
2022/10/05 11:20:08;;;;;;;2.97;1.08;;;25.90;53.90;;;;;;4875834;29;20037;-68
2022/10/05 11:22:43;;;;;;;1.77;1.17;;;25.80;53.30;;;;;;4876495;29;20234;-68
2022/10/05 11:25:27;;;;;;;2.42;1.13;;;25.90;54.00;;;;;;4875763;29;20438;-67
2022/10/05 11:27:59;;;;;;;3.28;1.02;;;25.90;54.20;;;;;;4876072;29;20032;-68
2022/10/05 11:31:00;;;;;;;1.30;1.00;;;25.90;54.30;;;;;;4875906;29;20115;-69
2022/10/05 11:34:04;;;;;;;1.17;1.08;;;25.90;54.80;;;;;;4875984;29;20033;-70
2022/10/05 11:36:50;;;;;;;0.80;0.80;;;25.90;54.50;;;;;;4876114;29;20764;-69
2022/10/05 11:39:22;;;;;;;3.50;1.40;;;25.80;54.80;;;;;;4875803;29;20041;-69
2022/10/05 11:42:18;;;;;;;4.13;1.13;;;25.80;54.80;;;;;;4875651;29;20057;-70
2022/10/05 11:45:20;;;;;;;2.88;1.17;;;25.80;54.80;;;;;;4875487;29;20482;-71
2022/10/05 11:48:23;;;;;;;1.52;1.42;;;25.80;54.80;;;;;;4860338;29;20078;-68
2022/10/05 11:51:03;;;;;;;0.93;0.90;;;25.90;54.80;;;;;;4907413;29;20056;-68
2022/10/05 11:53:37;;;;;;;2.92;1.05;;;25.90;54.10;;;;;;4912365;29;20140;-67
2022/10/05 11:56:40;;;;;;;2.08;1.75;;;25.70;53.80;;;;;;4920729;28;20184;-68
2022/10/05 11:59:39;;;;;;;1.75;1.65;;;25.80;53.00;;;;;;4931582;29;20039;-68
2022/10/05 12:02:26;;;;;;;0.95;0.93;;;25.90;52.20;;;;;;4932001;29;20598;-69
2022/10/05 12:05:10;;;;;;;3.97;1.10;;;25.70;52.10;;;;;;4931757;29;20102;-70
2022/10/05 12:07:39;;;;;;;0.73;0.73;;;25.70;51.90;;;;;;4931987;29;20509;-71
2022/10/05 12:10:23;;;;;;;1.40;1.20;;;25.90;51.50;;;;;;4931911;29;20528;-70
2022/10/05 12:13:01;;;;;;;1.48;1.20;;;25.80;51.20;;;;;;4931704;29;20047;-67
2022/10/05 12:15:47;;;;;;;2.38;0.98;;;25.80;51.00;;;;;;4931363;29;20386;-68
2022/10/05 12:18:21;;;;;;;3.13;0.70;;;25.80;49.70;;;;;;4874882;29;20082;-68
2022/10/05 12:21:14;;;;;;;1.83;1.30;;;25.80;50.30;;;;;;4874963;29;20407;-73
2022/10/05 12:24:12;;;;;;;2.72;1.13;;;25.70;50.50;;;;;;4859487;29;20052;-72
2022/10/05 12:26:53;;;;;;;3.50;0.98;;;25.70;50.70;;;;;;4858999;29;20076;-70
2022/10/05 12:29:32;;;;;;;1.02;0.90;;;25.80;50.90;;;;;;4874338;29;20041;-70
2022/10/05 12:32:02;;;;;;;2.33;1.30;;;25.60;50.80;;;;;;4875097;29;20563;-70
2022/10/05 12:34:35;;;;;;;2.85;1.10;;;25.60;50.60;;;;;;4859376;29;20108;-70
2022/10/05 12:37:16;;;;;;;2.50;1.23;;;25.70;50.00;;;;;;4956612;28;20051;-70
2022/10/05 12:40:00;;;;;;;3.50;1.10;;;25.60;49.90;;;;;;4965434;28;20043;-70
2022/10/05 12:42:50;;;;;;;2.78;0.98;;;25.60;50.40;;;;;;4950586;29;20042;-69
2022/10/05 12:45:46;;;;;;;1.15;0.98;;;25.60;50.30;;;;;;4950680;29;20027;-70
2022/10/05 12:48:43;;;;;;;2.45;1.00;;;25.70;50.20;;;;;;4956094;28;20555;-69
2022/10/05 12:51:24;;;;;;;0.70;0.70;;;25.60;50.10;;;;;;5012768;28;20037;-67
2022/10/05 12:54:30;;;;;;;0.82;0.80;;;25.80;48.50;;;;;;5030891;28;20030;-70
2022/10/05 12:57:02;;;;;;;5.80;1.30;;;25.60;46.20;;;;;;4970706;28;20118;-67
2022/10/05 12:59:34;;;;;;;1.25;1.13;;;25.50;48.10;;;;;;4972654;28;20090;-68
2022/10/05 13:02:24;;;;;;;1.63;1.20;;;25.60;47.80;;;;;;4972537;28;20046;-66
2022/10/05 13:04:50;;;;;;;4.57;1.08;;;25.70;47.40;;;;;;4972379;28;20058;-67
2022/10/05 13:07:22;;;;;;;1.30;0.90;;;25.60;47.00;;;;;;4940126;28;20488;-66
2022/10/05 13:09:56;;;;;;;1.67;0.97;;;25.60;46.60;;;;;;4971950;28;20126;-68
2022/10/05 13:12:38;;;;;;;2.58;1.08;;;25.60;46.30;;;;;;4972383;28;20141;-68
2022/10/05 13:15:26;;;;;;;2.15;1.30;;;25.60;45.50;;;;;;4957127;28;20052;-67
2022/10/05 13:18:13;;;;;;;4.20;1.40;;;25.60;45.50;;;;;;4964480;28;20125;-67
2022/10/05 13:21:01;;;;;;;2.45;1.10;;;25.60;44.80;;;;;;4925764;29;20054;-67
2022/10/05 13:24:04;;;;;;;1.38;1.08;;;25.50;45.00;;;;;;4913569;29;20052;-67
2022/10/05 13:26:35;;;;;;;3.15;1.30;;;25.50;45.20;;;;;;4901126;29;20054;-70
2022/10/05 13:29:18;;;;;;;1.30;1.00;;;25.50;45.70;;;;;;4916053;29;20048;-68
2022/10/05 13:31:59;;;;;;;3.35;1.20;;;25.50;46.10;;;;;;4927086;28;20049;-69
2022/10/05 13:34:30;;;;;;;1.52;1.08;;;25.40;45.80;;;;;;4972873;28;20542;-69
2022/10/05 13:37:16;;;;;;;1.20;1.10;;;25.40;46.60;;;;;;4973335;28;20427;-69
2022/10/05 13:40:13;;;;;;;1.48;1.00;;;25.50;47.00;;;;;;4972693;28;20035;-69
2022/10/05 13:42:42;;;;;;;1.77;1.17;;;25.40;47.10;;;;;;4956457;28;20599;-68
2022/10/05 13:45:23;;;;;;;2.20;1.35;;;25.50;49.00;;;;;;4973399;28;20035;-68
2022/10/05 13:48:14;;;;;;;1.13;1.02;;;25.90;49.60;;;;;;4971831;28;20071;-68
2022/10/05 13:51:22;;;;;;;2.60;1.40;;;26.30;49.10;;;;;;4982592;28;20065;-67
2022/10/05 13:54:09;;;;;;;2.90;1.80;;;26.70;49.90;;;;;;4983189;28;20117;-70
2022/10/05 13:57:06;;;;;;;2.03;1.42;;;27.00;47.50;;;;;;4971840;28;20077;-68
2022/10/05 13:59:55;;;;;;;2.50;1.50;;;26.90;46.90;;;;;;4879099;29;20045;-70
2022/10/05 14:02:38;;;;;;;3.85;1.00;;;26.90;47.30;;;;;;4858558;29;20480;-69
2022/10/05 14:05:23;;;;;;;1.17;1.02;;;26.80;45.70;;;;;;4858053;29;20523;-69
2022/10/05 14:08:01;;;;;;;1.50;0.98;;;26.80;45.10;;;;;;4861005;29;20492;-67
2022/10/05 14:10:32;;;;;;;3.45;1.45;;;26.90;43.70;;;;;;4882779;29;20427;-66
2022/10/05 14:13:01;;;;;;;1.80;1.30;;;26.70;42.00;;;;;;4861313;29;20124;-68
2022/10/05 14:15:29;;;;;;;1.73;1.05;;;26.80;43.20;;;;;;4877052;29;20744;-68